Time;durP1;ratioP1;P1;durP2;ratioP2;P2;SDS_P1;SDS_P2;PMS_P1;PMS_P2;Temp;Humidity;BMP_temperature;BMP_pressure;BME280_temperature;BME280_humidity;BME280_pressure;Samples;Min_cycle;Max_cycle;Signal;HPM_P1;HPM_P2
2024/01/07 00:01:34;;;;;;;8.43;4.90;;;0.60;90.40;;;;;;5087846;28;20468;-78
2024/01/07 00:04:00;;;;;;;8.77;4.75;;;0.50;90.20;;;;;;5088642;28;20416;-78
2024/01/07 00:06:26;;;;;;;8.77;5.30;;;0.60;90.60;;;;;;5084119;28;20926;-79
2024/01/07 00:08:51;;;;;;;8.27;4.70;;;0.60;90.90;;;;;;5105719;28;20425;-79
2024/01/07 00:11:17;;;;;;;7.25;5.07;;;0.60;91.20;;;;;;5101137;28;21006;-79
2024/01/07 00:13:42;;;;;;;8.00;4.90;;;0.60;90.70;;;;;;5103347;28;20404;-78
2024/01/07 00:16:08;;;;;;;8.27;5.00;;;0.60;90.80;;;;;;5101986;28;20398;-80
2024/01/07 00:18:34;;;;;;;7.45;5.05;;;0.60;90.60;;;;;;5104085;28;20769;-80
2024/01/07 00:21:00;;;;;;;8.82;5.15;;;0.60;90.70;;;;;;5100303;28;20413;-80
2024/01/07 00:23:25;;;;;;;9.10;5.60;;;0.60;91.00;;;;;;5104224;28;20400;-80
2024/01/07 00:25:51;;;;;;;7.87;5.50;;;0.60;90.90;;;;;;5093043;28;20426;-80
2024/01/07 00:28:16;;;;;;;8.02;5.35;;;0.60;91.10;;;;;;5102013;28;21015;-79
2024/01/07 00:30:42;;;;;;;8.40;5.53;;;0.60;91.10;;;;;;5100456;28;20484;-80
2024/01/07 00:33:07;;;;;;;7.83;5.07;;;0.60;91.20;;;;;;5102156;28;21106;-79
2024/01/07 00:35:33;;;;;;;8.27;5.35;;;0.60;91.10;;;;;;5099104;28;20398;-79
2024/01/07 00:37:59;;;;;;;10.33;5.43;;;0.60;91.20;;;;;;5097549;28;20406;-80
2024/01/07 00:40:24;;;;;;;8.40;5.22;;;0.50;90.90;;;;;;5102026;28;20947;-79
2024/01/07 00:42:51;;;;;;;6.63;4.50;;;0.50;90.30;;;;;;5098305;28;20403;-79
2024/01/07 00:45:17;;;;;;;7.38;4.50;;;0.50;88.90;;;;;;5105504;28;20422;-79
2024/01/07 00:47:43;;;;;;;7.70;4.38;;;0.50;90.10;;;;;;5098054;28;20403;-79
2024/01/07 00:50:09;;;;;;;6.50;4.70;;;0.50;89.20;;;;;;5105381;28;20418;-79
2024/01/07 00:52:36;;;;;;;8.90;4.78;;;0.50;86.90;;;;;;5108033;28;20404;-79
2024/01/07 00:55:06;;;;;;;7.47;4.05;;;0.40;86.30;;;;;;5105704;28;20927;-80
2024/01/07 00:57:32;;;;;;;6.15;3.90;;;0.40;86.30;;;;;;5099803;28;20462;-79
2024/01/07 00:59:59;;;;;;;8.15;4.28;;;0.40;86.30;;;;;;5100007;28;20759;-79
2024/01/07 01:02:25;;;;;;;9.27;3.92;;;0.30;86.00;;;;;;5106473;28;20423;-80
2024/01/07 01:04:50;;;;;;;6.82;3.85;;;0.40;87.90;;;;;;5102701;28;20461;-79
2024/01/07 01:07:16;;;;;;;6.93;4.27;;;0.40;88.00;;;;;;5106593;28;20472;-79
2024/01/07 01:09:41;;;;;;;6.30;4.07;;;0.30;88.50;;;;;;5101735;28;20390;-79
2024/01/07 01:12:07;;;;;;;5.95;3.90;;;0.30;89.20;;;;;;5105455;28;20825;-79
2024/01/07 01:14:32;;;;;;;6.20;4.70;;;0.30;87.80;;;;;;5099874;28;20846;-79
2024/01/07 01:16:58;;;;;;;7.93;4.30;;;0.30;89.10;;;;;;5105385;28;20449;-80
2024/01/07 01:19:24;;;;;;;7.95;4.55;;;0.30;88.80;;;;;;5100372;28;20429;-79
2024/01/07 01:21:50;;;;;;;6.80;4.05;;;0.30;89.40;;;;;;5103457;28;20400;-79
2024/01/07 01:24:15;;;;;;;6.87;4.40;;;0.30;89.50;;;;;;5098520;28;20441;-79
2024/01/07 01:26:41;;;;;;;7.70;4.47;;;0.30;90.00;;;;;;5103722;28;20769;-79
2024/01/07 01:29:07;;;;;;;7.00;4.07;;;0.30;90.00;;;;;;5099647;28;20797;-79
2024/01/07 01:31:32;;;;;;;6.93;3.78;;;0.30;90.10;;;;;;5102940;28;20775;-78
2024/01/07 01:33:58;;;;;;;7.30;3.70;;;0.30;87.40;;;;;;5098287;28;20408;-79
2024/01/07 01:36:24;;;;;;;7.10;3.70;;;0.30;87.50;;;;;;5101821;28;20479;-78
2024/01/07 01:38:49;;;;;;;5.43;3.53;;;0.30;85.20;;;;;;5090826;28;20402;-78
2024/01/07 01:41:16;;;;;;;5.70;3.30;;;0.30;86.50;;;;;;5105884;28;20404;-79
2024/01/07 01:43:42;;;;;;;6.93;3.60;;;0.30;87.20;;;;;;5103046;28;20493;-79
2024/01/07 01:46:08;;;;;;;8.10;3.67;;;0.30;87.70;;;;;;5105515;28;20495;-80
2024/01/07 01:48:35;;;;;;;7.40;3.70;;;0.30;87.80;;;;;;5104348;28;20578;-80
2024/01/07 01:51:02;;;;;;;7.43;3.70;;;0.40;87.90;;;;;;5088828;28;20405;-80
2024/01/07 01:53:29;;;;;;;7.03;3.58;;;0.30;87.60;;;;;;5104502;28;20398;-79
2024/01/07 01:55:56;;;;;;;7.82;3.88;;;0.40;88.10;;;;;;5097496;28;20404;-79
2024/01/07 01:58:23;;;;;;;6.22;3.70;;;0.40;88.00;;;;;;5100575;28;20402;-79
2024/01/07 02:00:50;;;;;;;6.45;3.50;;;0.40;86.10;;;;;;5106457;28;20400;-79
2024/01/07 02:03:16;;;;;;;5.93;3.22;;;0.40;85.20;;;;;;5103157;28;20406;-79
2024/01/07 02:05:42;;;;;;;6.40;3.30;;;0.40;85.50;;;;;;5106171;28;20794;-79
2024/01/07 02:08:08;;;;;;;6.77;3.43;;;0.40;85.90;;;;;;5103582;28;20417;-79
2024/01/07 02:10:36;;;;;;;7.60;3.57;;;0.40;84.10;;;;;;5105627;28;20407;-79
2024/01/07 02:13:05;;;;;;;7.15;3.28;;;0.40;84.80;;;;;;5101385;28;20428;-80
2024/01/07 02:15:31;;;;;;;5.55;3.40;;;0.40;82.80;;;;;;5104118;28;20786;-79
2024/01/07 02:17:57;;;;;;;6.47;2.92;;;0.40;83.40;;;;;;5099850;28;20911;-80
2024/01/07 02:20:23;;;;;;;5.60;2.85;;;0.40;82.40;;;;;;5103308;28;20414;-80
2024/01/07 02:22:49;;;;;;;5.28;2.70;;;0.40;82.50;;;;;;5098824;28;20420;-80
2024/01/07 02:25:15;;;;;;;6.05;3.20;;;0.40;81.40;;;;;;5104159;28;20918;-79
2024/01/07 02:27:40;;;;;;;6.87;2.63;;;0.40;82.70;;;;;;5097570;28;20410;-80
2024/01/07 02:30:06;;;;;;;6.07;2.90;;;0.40;80.90;;;;;;5102174;28;20472;-79
2024/01/07 02:32:34;;;;;;;6.22;3.00;;;0.40;80.50;;;;;;5083596;28;20825;-79
2024/01/07 02:35:00;;;;;;;5.38;2.53;;;0.40;78.10;;;;;;5085467;28;20388;-79
2024/01/07 02:37:26;;;;;;;5.60;2.50;;;0.40;77.50;;;;;;5095629;28;20416;-79
2024/01/07 02:39:51;;;;;;;5.95;2.80;;;0.40;76.70;;;;;;5096642;28;20389;-79
2024/01/07 02:42:17;;;;;;;5.23;2.60;;;0.40;78.70;;;;;;5101746;28;20762;-80
2024/01/07 02:44:43;;;;;;;6.07;2.27;;;0.40;77.80;;;;;;5087323;28;20432;-79
2024/01/07 02:47:08;;;;;;;3.97;1.98;;;0.40;72.60;;;;;;5084437;28;20821;-80
2024/01/07 02:49:34;;;;;;;5.25;2.30;;;0.40;75.40;;;;;;5104361;28;20419;-79
2024/01/07 02:52:00;;;;;;;4.40;2.20;;;0.40;73.80;;;;;;5101130;28;20431;-79
2024/01/07 02:54:25;;;;;;;4.73;2.53;;;0.40;73.10;;;;;;5103376;28;20411;-79
2024/01/07 02:56:51;;;;;;;4.28;2.20;;;0.40;73.50;;;;;;5100666;28;20415;-79
2024/01/07 02:59:16;;;;;;;4.20;2.40;;;0.40;74.00;;;;;;5095158;28;20490;-79
2024/01/07 03:01:42;;;;;;;4.37;2.20;;;0.40;76.10;;;;;;5099765;28;20445;-79
2024/01/07 03:04:10;;;;;;;5.40;2.45;;;0.40;72.00;;;;;;5090838;28;20919;-79
2024/01/07 03:06:36;;;;;;;4.93;2.15;;;0.40;74.80;;;;;;5087239;28;20428;-79
2024/01/07 03:09:02;;;;;;;5.87;2.40;;;0.40;73.10;;;;;;5102869;28;20886;-79
2024/01/07 03:11:28;;;;;;;3.78;2.28;;;0.40;73.70;;;;;;5105317;28;20407;-79
2024/01/07 03:13:54;;;;;;;4.40;2.00;;;0.40;71.90;;;;;;5075234;28;20400;-79
2024/01/07 03:16:24;;;;;;;5.10;2.03;;;0.40;70.50;;;;;;5104810;28;20913;-79
2024/01/07 03:18:50;;;;;;;3.88;2.17;;;0.40;69.50;;;;;;5106748;28;20426;-79
2024/01/07 03:21:23;;;;;;;4.97;2.17;;;0.40;69.80;;;;;;5096403;28;20436;-79
2024/01/07 03:23:50;;;;;;;3.97;1.80;;;0.40;65.30;;;;;;5077563;28;20472;-79
2024/01/07 03:26:18;;;;;;;5.63;1.98;;;0.40;68.40;;;;;;5087304;28;20871;-79
2024/01/07 03:28:44;;;;;;;6.72;1.90;;;0.40;69.50;;;;;;5097920;28;20472;-79
2024/01/07 03:31:14;;;;;;;3.73;1.80;;;0.40;71.00;;;;;;5104629;28;20426;-79
2024/01/07 03:33:41;;;;;;;4.63;2.20;;;0.40;72.10;;;;;;5107047;28;20392;-79
2024/01/07 03:36:12;;;;;;;3.22;1.70;;;0.40;73.10;;;;;;5099378;28;20417;-79
2024/01/07 03:38:38;;;;;;;4.23;1.90;;;0.40;73.10;;;;;;5090955;28;20949;-80
2024/01/07 03:41:04;;;;;;;5.28;1.80;;;0.40;73.20;;;;;;5091377;28;20398;-80
2024/01/07 03:43:30;;;;;;;4.75;2.05;;;0.30;73.10;;;;;;5089791;28;20417;-79
2024/01/07 03:45:55;;;;;;;5.20;2.03;;;0.30;71.30;;;;;;5089673;28;20441;-79
2024/01/07 03:48:21;;;;;;;3.92;2.10;;;0.30;72.10;;;;;;5107428;28;20400;-79
2024/01/07 03:50:47;;;;;;;4.93;2.10;;;0.30;71.00;;;;;;5110956;28;20392;-79
2024/01/07 03:53:13;;;;;;;5.63;2.25;;;0.40;69.10;;;;;;5109429;28;20396;-79
2024/01/07 03:55:39;;;;;;;4.68;1.80;;;0.30;72.70;;;;;;5099164;28;20919;-79
2024/01/07 03:58:08;;;;;;;3.90;1.63;;;0.30;68.30;;;;;;5107891;28;20436;-79
2024/01/07 04:00:34;;;;;;;4.20;1.88;;;0.40;70.40;;;;;;5108897;28;20414;-79
2024/01/07 04:03:00;;;;;;;4.10;1.63;;;0.30;73.40;;;;;;5109675;28;20504;-79
2024/01/07 04:05:26;;;;;;;4.15;1.67;;;0.40;72.90;;;;;;5096949;28;20436;-80
2024/01/07 04:07:51;;;;;;;4.17;1.50;;;0.40;72.90;;;;;;5103941;28;20394;-79
2024/01/07 04:10:17;;;;;;;4.20;1.80;;;0.40;72.20;;;;;;5090504;28;20406;-79
2024/01/07 04:12:43;;;;;;;2.67;1.52;;;0.40;72.00;;;;;;5104910;28;20394;-79
2024/01/07 04:15:13;;;;;;;3.13;1.60;;;0.40;72.10;;;;;;5089836;28;20432;-80
2024/01/07 04:17:39;;;;;;;3.42;1.50;;;0.40;71.30;;;;;;5089391;28;20404;-79
2024/01/07 04:20:06;;;;;;;4.43;1.40;;;0.40;67.80;;;;;;5108675;28;20396;-79
2024/01/07 04:22:32;;;;;;;4.72;1.60;;;0.40;65.10;;;;;;5089741;28;20451;-80
2024/01/07 04:24:57;;;;;;;3.70;1.40;;;0.30;66.50;;;;;;5107980;28;20452;-79
2024/01/07 04:27:24;;;;;;;5.25;1.35;;;0.40;66.10;;;;;;5106288;28;21187;-79
2024/01/07 04:29:50;;;;;;;3.38;1.40;;;0.40;67.90;;;;;;5096431;28;20424;-80
2024/01/07 04:32:16;;;;;;;3.67;1.38;;;0.40;66.40;;;;;;5105369;28;20404;-79
2024/01/07 04:34:42;;;;;;;3.95;1.17;;;0.40;66.30;;;;;;5107471;28;21198;-79
2024/01/07 04:37:07;;;;;;;3.20;1.10;;;0.40;67.70;;;;;;5106433;28;20404;-79
2024/01/07 04:39:33;;;;;;;2.75;1.17;;;0.50;67.30;;;;;;5107535;28;20496;-79
2024/01/07 04:41:58;;;;;;;4.00;1.40;;;0.40;66.00;;;;;;5104015;28;20403;-79
2024/01/07 04:44:24;;;;;;;3.80;1.63;;;0.40;64.00;;;;;;5106562;28;20777;-80
2024/01/07 04:46:50;;;;;;;3.45;1.40;;;0.40;58.90;;;;;;5104415;28;20400;-78
2024/01/07 04:49:15;;;;;;;4.10;1.45;;;0.40;56.30;;;;;;5107207;28;20821;-79
2024/01/07 04:51:41;;;;;;;2.87;1.00;;;0.40;60.50;;;;;;5103589;28;20404;-78
2024/01/07 04:54:06;;;;;;;3.77;1.57;;;0.40;58.40;;;;;;5108232;28;20392;-79
2024/01/07 04:56:33;;;;;;;3.78;1.20;;;0.40;54.90;;;;;;5087596;28;20404;-79
2024/01/07 04:58:58;;;;;;;3.88;1.15;;;0.40;59.10;;;;;;5106817;28;20524;-78
2024/01/07 05:01:24;;;;;;;2.15;0.90;;;0.50;59.40;;;;;;5105265;28;20827;-79
2024/01/07 05:03:50;;;;;;;5.63;1.20;;;0.50;56.40;;;;;;5106793;28;20790;-79
2024/01/07 05:06:15;;;;;;;5.33;1.10;;;0.50;55.30;;;;;;5106378;28;20469;-79
2024/01/07 05:08:41;;;;;;;2.15;1.05;;;0.50;53.50;;;;;;5108594;28;20388;-79
2024/01/07 05:11:07;;;;;;;3.55;1.05;;;0.50;53.90;;;;;;5100594;28;20402;-79
2024/01/07 05:13:34;;;;;;;3.05;1.00;;;0.50;50.70;;;;;;5097461;28;20402;-79
2024/01/07 05:16:00;;;;;;;2.47;0.82;;;0.50;46.30;;;;;;5093879;28;20428;-79
2024/01/07 05:18:25;;;;;;;3.88;0.82;;;0.50;47.20;;;;;;5108018;28;20436;-79
2024/01/07 05:20:51;;;;;;;5.73;0.90;;;0.50;48.50;;;;;;5108280;28;20400;-79
2024/01/07 05:23:17;;;;;;;4.45;1.17;;;0.50;53.00;;;;;;5109231;28;20849;-79
2024/01/07 05:25:44;;;;;;;3.43;0.93;;;0.50;50.70;;;;;;5108482;28;20452;-79
2024/01/07 05:28:10;;;;;;;2.65;0.82;;;0.50;47.20;;;;;;5109700;28;20402;-79
2024/01/07 05:30:35;;;;;;;3.03;0.82;;;0.50;50.50;;;;;;5090388;28;20409;-79
2024/01/07 05:33:01;;;;;;;2.97;1.08;;;0.50;51.00;;;;;;5089330;28;20402;-79
2024/01/07 05:35:27;;;;;;;4.60;0.93;;;0.50;49.70;;;;;;5089776;28;20892;-79
2024/01/07 05:37:52;;;;;;;3.73;0.80;;;0.50;39.80;;;;;;5100256;28;20930;-79
2024/01/07 05:40:18;;;;;;;2.30;1.00;;;0.50;46.60;;;;;;5106066;28;20814;-79
2024/01/07 05:42:44;;;;;;;4.17;0.90;;;0.50;41.10;;;;;;5107871;28;20403;-79
2024/01/07 05:45:09;;;;;;;2.00;0.70;;;0.50;35.20;;;;;;5094011;28;20506;-79
2024/01/07 05:47:35;;;;;;;3.88;0.98;;;0.50;38.80;;;;;;5096791;28;20398;-79
2024/01/07 05:50:02;;;;;;;3.35;0.90;;;0.50;42.00;;;;;;5101400;28;20405;-79
2024/01/07 05:52:27;;;;;;;3.67;0.82;;;0.50;40.30;;;;;;5098496;28;20468;-79
2024/01/07 05:54:53;;;;;;;3.63;0.80;;;0.60;43.70;;;;;;5105779;28;20396;-79
2024/01/07 05:57:19;;;;;;;1.95;0.73;;;0.50;39.20;;;;;;5107846;28;20392;-79
2024/01/07 05:59:45;;;;;;;4.63;1.00;;;0.50;35.20;;;;;;5104597;28;20430;-79
2024/01/07 06:02:12;;;;;;;2.13;0.70;;;0.50;35.90;;;;;;5106999;28;20762;-78
2024/01/07 06:04:38;;;;;;;2.13;0.60;;;0.50;36.70;;;;;;5101721;28;20487;-79
2024/01/07 06:07:04;;;;;;;2.70;0.80;;;0.50;40.00;;;;;;5098563;28;20396;-79
2024/01/07 06:09:30;;;;;;;3.10;0.80;;;0.50;35.40;;;;;;5101433;28;20460;-79
2024/01/07 06:11:55;;;;;;;4.65;0.80;;;0.50;34.50;;;;;;5097822;28;21282;-79
2024/01/07 06:14:22;;;;;;;3.70;1.00;;;0.50;32.90;;;;;;5089189;28;20450;-79
2024/01/07 06:16:48;;;;;;;6.05;0.77;;;0.50;39.20;;;;;;5100326;28;20449;-79
2024/01/07 06:19:14;;;;;;;2.90;0.85;;;0.50;34.70;;;;;;5094809;28;20404;-78
2024/01/07 06:21:40;;;;;;;3.00;0.80;;;0.50;34.40;;;;;;5095142;28;20398;-79
2024/01/07 06:24:08;;;;;;;3.07;0.90;;;0.50;33.00;;;;;;5105851;28;20412;-79
2024/01/07 06:26:34;;;;;;;2.90;0.70;;;0.50;33.80;;;;;;5107451;28;20404;-79
2024/01/07 06:29:00;;;;;;;2.97;1.00;;;0.50;34.70;;;;;;5105529;28;20500;-79
2024/01/07 06:31:25;;;;;;;4.27;1.80;;;0.50;30.40;;;;;;5107275;28;20812;-79
2024/01/07 06:33:51;;;;;;;3.90;1.70;;;0.50;30.30;;;;;;5105095;28;20392;-79
2024/01/07 06:36:17;;;;;;;2.90;1.10;;;0.50;30.20;;;;;;5107613;28;20755;-79
2024/01/07 06:38:43;;;;;;;2.38;0.88;;;0.50;35.10;;;;;;5105039;28;20708;-79
2024/01/07 06:41:12;;;;;;;3.00;0.80;;;0.40;35.60;;;;;;5106702;28;20385;-79
2024/01/07 06:43:38;;;;;;;2.97;0.93;;;0.40;32.80;;;;;;5104755;28;20405;-79
2024/01/07 06:46:04;;;;;;;2.97;1.00;;;0.40;27.90;;;;;;5094479;28;20426;-79
2024/01/07 06:48:30;;;;;;;2.22;0.60;;;0.40;30.00;;;;;;5103151;28;20423;-79
2024/01/07 06:50:55;;;;;;;13.25;7.15;;;0.40;28.70;;;;;;5106820;28;20389;-79
2024/01/07 06:53:21;;;;;;;2.20;0.85;;;0.40;35.80;;;;;;5104857;28;20435;-79
2024/01/07 06:55:47;;;;;;;3.43;0.73;;;0.30;20.20;;;;;;5105786;28;20403;-80
2024/01/07 06:58:12;;;;;;;2.92;0.93;;;0.30;23.40;;;;;;5104496;28;20408;-79
2024/01/07 07:00:38;;;;;;;3.15;0.73;;;0.30;23.10;;;;;;5106610;28;20404;-79
2024/01/07 07:03:05;;;;;;;3.53;0.68;;;0.30;23.40;;;;;;5104467;28;20443;-80
2024/01/07 07:05:31;;;;;;;3.22;0.80;;;0.30;24.40;;;;;;5106401;28;21091;-80
2024/01/07 07:07:57;;;;;;;2.50;0.98;;;0.30;23.20;;;;;;5092844;28;20453;-80
2024/01/07 07:10:22;;;;;;;3.53;1.20;;;0.20;23.00;;;;;;5106292;28;20401;-79
2024/01/07 07:12:50;;;;;;;4.13;0.87;;;0.20;26.50;;;;;;5083753;28;20825;-79
2024/01/07 07:15:16;;;;;;;2.30;0.60;;;0.20;24.00;;;;;;5103674;28;20436;-79
2024/01/07 07:17:42;;;;;;;4.35;0.82;;;0.30;28.20;;;;;;5105233;28;20430;-79
2024/01/07 07:20:08;;;;;;;3.15;0.80;;;0.30;25.40;;;;;;5091599;28;20390;-79
2024/01/07 07:22:34;;;;;;;3.42;0.70;;;0.30;12.40;;;;;;5092095;28;20397;-79
2024/01/07 07:24:59;;;;;;;2.50;0.82;;;0.40;17.70;;;;;;5091410;28;20490;-79
2024/01/07 07:27:25;;;;;;;2.33;1.00;;;0.40;21.40;;;;;;5091595;28;20399;-79
2024/01/07 07:29:50;;;;;;;4.77;1.10;;;0.40;22.80;;;;;;5091565;28;20398;-79
2024/01/07 07:32:16;;;;;;;3.17;0.80;;;0.40;19.70;;;;;;5091119;28;20402;-79
2024/01/07 07:34:42;;;;;;;2.90;0.90;;;0.40;22.70;;;;;;5091257;28;20429;-79
2024/01/07 07:37:07;;;;;;;2.47;0.90;;;0.40;20.40;;;;;;5090386;28;20398;-79
2024/01/07 07:39:33;;;;;;;3.37;1.43;;;0.40;25.70;;;;;;5091839;28;20398;-79
2024/01/07 07:41:59;;;;;;;3.80;1.90;;;0.40;22.70;;;;;;5091258;28;20755;-79
2024/01/07 07:44:25;;;;;;;3.20;1.27;;;0.40;24.90;;;;;;5091793;28;20426;-79
2024/01/07 07:46:51;;;;;;;4.18;1.48;;;0.40;20.50;;;;;;5091107;28;20401;-79
2024/01/07 07:49:16;;;;;;;4.33;1.80;;;0.40;21.90;;;;;;5091394;28;20904;-79
2024/01/07 07:51:43;;;;;;;4.35;2.10;;;0.40;28.10;;;;;;5091395;28;20433;-79
2024/01/07 07:54:09;;;;;;;3.30;1.35;;;0.50;23.40;;;;;;5091474;28;20772;-79
2024/01/07 07:56:35;;;;;;;3.50;1.80;;;0.50;21.90;;;;;;5108659;28;20404;-79
2024/01/07 07:59:02;;;;;;;2.25;1.00;;;0.40;25.10;;;;;;5110247;28;20412;-79
2024/01/07 08:01:28;;;;;;;2.35;0.95;;;0.40;22.20;;;;;;5108515;28;20401;-79
2024/01/07 08:03:54;;;;;;;2.90;1.20;;;0.50;20.10;;;;;;5110415;28;20820;-79
2024/01/07 08:06:19;;;;;;;4.10;1.20;;;0.50;21.40;;;;;;5108598;28;20392;-79
2024/01/07 08:08:45;;;;;;;4.17;1.60;;;0.50;26.10;;;;;;5101988;28;20780;-79
2024/01/07 08:11:10;;;;;;;3.83;1.20;;;0.50;21.80;;;;;;5088154;28;20554;-79
2024/01/07 08:13:37;;;;;;;3.25;0.90;;;0.50;22.90;;;;;;5077911;28;20461;-79
2024/01/07 08:16:04;;;;;;;4.32;1.50;;;0.50;23.00;;;;;;5075418;28;20402;-79
2024/01/07 08:18:30;;;;;;;3.28;1.20;;;0.50;21.60;;;;;;5088707;28;21378;-80
2024/01/07 08:20:56;;;;;;;3.60;0.80;;;0.50;21.20;;;;;;5086400;28;20433;-79
2024/01/07 08:23:22;;;;;;;2.50;0.90;;;0.50;17.90;;;;;;5079583;28;20482;-79
2024/01/07 08:25:48;;;;;;;2.95;1.10;;;0.60;20.10;;;;;;5085644;28;20432;-80
2024/01/07 08:28:14;;;;;;;4.18;1.45;;;0.60;21.50;;;;;;5086008;28;20413;-78
2024/01/07 08:30:39;;;;;;;6.03;1.40;;;0.60;21.50;;;;;;5077182;28;20406;-78
2024/01/07 08:33:05;;;;;;;2.90;1.00;;;0.60;24.20;;;;;;5081743;28;20535;-79
2024/01/07 08:35:30;;;;;;;4.82;1.20;;;0.70;23.00;;;;;;5089938;28;20406;-79
2024/01/07 08:37:56;;;;;;;2.57;1.10;;;0.70;25.00;;;;;;5078553;28;20416;-78
2024/01/07 08:40:22;;;;;;;3.33;1.20;;;0.70;22.70;;;;;;5084861;28;20480;-79
2024/01/07 08:42:47;;;;;;;4.55;0.90;;;0.70;21.30;;;;;;5078206;28;20398;-79
2024/01/07 08:45:13;;;;;;;4.13;1.13;;;0.70;26.90;;;;;;5088279;28;20804;-79
2024/01/07 08:47:39;;;;;;;2.57;1.07;;;0.70;26.90;;;;;;5082068;28;20479;-79
2024/01/07 08:50:05;;;;;;;5.75;1.25;;;0.70;23.30;;;;;;5089410;28;21636;-78
2024/01/07 08:52:31;;;;;;;3.23;1.10;;;0.70;27.40;;;;;;5077217;28;20440;-78
2024/01/07 08:54:56;;;;;;;3.63;1.07;;;0.80;27.50;;;;;;5096168;28;20451;-78
2024/01/07 08:57:22;;;;;;;4.03;1.10;;;0.80;24.00;;;;;;5097453;28;20394;-78
2024/01/07 08:59:48;;;;;;;3.40;1.07;;;0.80;24.10;;;;;;5096715;28;20406;-78
2024/01/07 09:02:13;;;;;;;3.63;1.10;;;0.80;23.40;;;;;;5097438;28;20418;-78
2024/01/07 09:04:39;;;;;;;2.97;0.70;;;0.80;26.40;;;;;;5091828;28;20432;-79
2024/01/07 09:07:05;;;;;;;2.97;0.90;;;0.80;17.70;;;;;;5099923;28;20394;-79
2024/01/07 09:09:30;;;;;;;2.93;0.90;;;0.80;15.30;;;;;;5098389;28;20402;-79
2024/01/07 09:11:57;;;;;;;6.30;1.13;;;0.80;13.20;;;;;;5100236;28;20405;-79
2024/01/07 09:14:25;;;;;;;4.03;1.25;;;0.90;18.70;;;;;;5094949;28;20399;-78
2024/01/07 09:16:50;;;;;;;2.50;1.20;;;0.90;17.10;;;;;;5108015;28;20408;-79
2024/01/07 09:19:17;;;;;;;4.80;1.70;;;0.90;17.50;;;;;;5096027;28;20985;-79
2024/01/07 09:21:43;;;;;;;3.42;1.40;;;0.90;17.60;;;;;;5094905;28;20798;-79
2024/01/07 09:24:09;;;;;;;2.60;0.82;;;0.90;13.20;;;;;;5105692;28;20913;-80
2024/01/07 09:26:35;;;;;;;2.92;0.95;;;0.90;14.80;;;;;;5095193;27;20430;-79
2024/01/07 09:29:01;;;;;;;2.67;1.00;;;1.00;10.10;;;;;;5091643;28;20504;-79
2024/01/07 09:31:27;;;;;;;4.78;1.30;;;1.00;14.40;;;;;;5085357;28;20472;-81
2024/01/07 09:33:52;;;;;;;3.03;1.10;;;1.00;15.40;;;;;;5084611;28;20477;-80
2024/01/07 09:36:18;;;;;;;3.95;1.10;;;1.00;18.70;;;;;;5085943;28;20398;-80
2024/01/07 09:38:44;;;;;;;4.73;0.97;;;1.00;13.70;;;;;;5090890;28;20400;-79
2024/01/07 09:41:10;;;;;;;3.67;1.40;;;1.00;12.00;;;;;;5103551;28;20821;-79
2024/01/07 09:43:35;;;;;;;6.95;2.67;;;1.00;13.30;;;;;;5083158;28;20442;-79
2024/01/07 09:46:02;;;;;;;3.40;1.20;;;1.00;15.00;;;;;;5102291;28;20452;-79
2024/01/07 09:48:28;;;;;;;3.40;1.05;;;1.00;12.50;;;;;;5098751;28;20468;-79
2024/01/07 09:50:56;;;;;;;7.43;1.20;;;1.00;14.60;;;;;;5103194;28;20400;-78
2024/01/07 09:53:26;;;;;;;3.17;1.45;;;1.00;9.00;;;;;;5089754;28;20413;-79
2024/01/07 09:56:20;;;;;;;6.47;1.20;;;1.00;4.40;;;;;;5102116;28;20400;-80
2024/01/07 09:58:49;;;;;;;6.37;1.50;;;1.00;6.00;;;;;;5087109;28;20488;-80
2024/01/07 10:01:18;;;;;;;4.95;1.63;;;1.00;12.10;;;;;;5098370;28;20406;-80
2024/01/07 10:03:44;;;;;;;4.80;1.20;;;1.00;13.70;;;;;;5096721;28;20465;-79
2024/01/07 10:06:13;;;;;;;3.85;1.30;;;1.00;17.00;;;;;;5097132;28;20476;-79
2024/01/07 10:08:39;;;;;;;3.33;1.27;;;1.10;19.50;;;;;;5097164;28;20782;-80
2024/01/07 10:11:05;;;;;;;4.40;1.05;;;1.20;18.90;;;;;;5092703;28;20920;-80
2024/01/07 10:13:31;;;;;;;3.20;1.10;;;1.20;18.70;;;;;;5087515;28;20422;-80
2024/01/07 10:15:56;;;;;;;3.13;1.23;;;1.30;19.70;;;;;;5090777;28;20533;-80
2024/01/07 10:18:22;;;;;;;3.97;1.10;;;1.20;16.60;;;;;;5096450;28;20546;-79
2024/01/07 10:20:48;;;;;;;5.50;1.33;;;1.20;15.80;;;;;;5089556;28;21106;-80
2024/01/07 10:23:19;;;;;;;8.00;1.90;;;1.20;20.10;;;;;;5096289;28;20396;-79
2024/01/07 10:25:45;;;;;;;5.70;1.77;;;1.20;18.70;;;;;;5091645;28;20441;-80
2024/01/07 10:28:11;;;;;;;3.87;1.40;;;1.30;19.60;;;;;;5092154;28;21179;-80
2024/01/07 10:30:40;;;;;;;4.65;1.65;;;1.20;20.60;;;;;;5098313;28;20423;-79
2024/01/07 10:33:07;;;;;;;5.23;1.67;;;1.20;21.50;;;;;;5106525;28;20603;-80
2024/01/07 10:35:34;;;;;;;6.65;2.17;;;1.20;23.40;;;;;;5089492;28;21320;-79
2024/01/07 10:38:00;;;;;;;5.45;2.22;;;1.20;25.00;;;;;;5099371;28;20396;-80
2024/01/07 10:40:29;;;;;;;6.75;2.13;;;1.20;24.60;;;;;;5090795;28;20488;-79
2024/01/07 10:42:55;;;;;;;9.77;2.85;;;1.20;24.60;;;;;;5093396;28;20418;-80
2024/01/07 10:45:24;;;;;;;9.80;2.20;;;1.20;27.70;;;;;;5087814;28;20439;-79
2024/01/07 10:47:54;;;;;;;5.95;2.40;;;1.10;28.50;;;;;;5098089;28;20412;-79
2024/01/07 10:50:21;;;;;;;9.50;2.92;;;1.10;29.00;;;;;;5091246;28;20403;-79
2024/01/07 10:52:54;;;;;;;11.45;3.05;;;1.10;31.00;;;;;;5101448;28;20412;-79
2024/01/07 10:55:22;;;;;;;6.13;2.47;;;1.30;40.90;;;;;;5085548;28;20426;-79
2024/01/07 10:57:49;;;;;;;9.88;2.70;;;1.60;41.30;;;;;;5097832;28;20456;-79
2024/01/07 11:00:19;;;;;;;7.10;2.67;;;1.90;27.70;;;;;;5103416;28;20575;-79
2024/01/07 11:03:11;;;;;;;8.90;4.32;;;2.00;28.90;;;;;;5089170;28;20410;-79
2024/01/07 11:05:52;;;;;;;7.55;2.83;;;2.20;36.10;;;;;;5088993;28;20420;-79
2024/01/07 11:08:31;;;;;;;8.30;2.73;;;2.60;28.20;;;;;;5090020;28;20508;-79
2024/01/07 11:11:09;;;;;;;8.00;2.63;;;2.60;11.60;;;;;;5096473;28;20410;-79
2024/01/07 11:13:40;;;;;;;5.45;2.75;;;2.40;13.90;;;;;;5085356;28;20463;-81
2024/01/07 11:16:10;;;;;;;7.50;2.53;;;2.40;19.80;;;;;;5091612;28;20428;-79
2024/01/07 11:18:46;;;;;;;5.70;3.00;;;2.30;16.90;;;;;;5105675;28;20427;-79
2024/01/07 11:21:24;;;;;;;7.43;2.90;;;2.20;20.10;;;;;;5080076;28;20956;-79
2024/01/07 11:23:52;;;;;;;6.82;2.60;;;2.00;19.70;;;;;;5105297;28;20407;-79
2024/01/07 11:26:20;;;;;;;8.25;2.80;;;2.10;25.90;;;;;;5106556;28;20432;-80
2024/01/07 11:28:48;;;;;;;5.25;2.67;;;2.10;23.50;;;;;;5103196;28;20417;-80
2024/01/07 11:31:15;;;;;;;6.18;3.30;;;2.20;24.10;;;;;;5095494;28;20408;-79
2024/01/07 11:33:49;;;;;;;5.30;2.65;;;2.40;20.30;;;;;;5102601;28;20477;-79
2024/01/07 11:36:16;;;;;;;5.88;3.30;;;2.50;17.10;;;;;;5087043;28;20404;-78
2024/01/07 11:38:45;;;;;;;6.55;3.03;;;2.50;22.50;;;;;;5102150;28;20434;-79
2024/01/07 11:41:13;;;;;;;8.45;3.63;;;2.50;15.00;;;;;;5104352;28;20410;-80
2024/01/07 11:43:51;;;;;;;9.77;3.17;;;2.30;17.70;;;;;;5102120;28;20401;-79
2024/01/07 11:46:16;;;;;;;4.60;2.47;;;2.20;19.80;;;;;;5103929;28;20416;-79
2024/01/07 11:48:46;;;;;;;6.60;2.40;;;2.00;18.50;;;;;;5102259;28;20440;-79
2024/01/07 11:51:11;;;;;;;4.57;2.20;;;1.90;22.80;;;;;;5092526;28;20437;-79
2024/01/07 11:53:37;;;;;;;5.13;2.75;;;1.80;23.30;;;;;;5091325;28;21139;-80
2024/01/07 11:56:04;;;;;;;7.15;2.95;;;1.80;25.10;;;;;;5101734;28;20425;-80
2024/01/07 11:58:30;;;;;;;5.50;2.38;;;1.80;26.90;;;;;;5101361;28;20974;-79
2024/01/07 12:00:56;;;;;;;6.15;2.50;;;1.80;27.20;;;;;;5095389;28;20437;-79
2024/01/07 12:03:23;;;;;;;6.70;2.80;;;1.80;30.60;;;;;;5101531;28;20483;-79
2024/01/07 12:05:49;;;;;;;5.53;2.58;;;1.90;29.20;;;;;;5087701;28;20477;-79
2024/01/07 12:08:15;;;;;;;5.25;2.67;;;1.90;29.70;;;;;;5104615;28;20800;-80
2024/01/07 12:10:41;;;;;;;5.80;2.60;;;2.00;30.10;;;;;;5104190;28;20400;-80
2024/01/07 12:13:08;;;;;;;6.13;2.60;;;2.00;29.40;;;;;;5100341;28;20476;-79
2024/01/07 12:15:34;;;;;;;7.28;2.40;;;2.00;27.40;;;;;;5090920;28;20398;-80
2024/01/07 12:18:01;;;;;;;7.53;2.73;;;1.90;27.30;;;;;;5102529;28;20807;-79
2024/01/07 12:20:27;;;;;;;5.57;2.30;;;1.70;27.80;;;;;;5101488;28;20986;-80
2024/01/07 12:22:57;;;;;;;5.13;2.80;;;1.60;26.30;;;;;;5108970;28;20393;-79
2024/01/07 12:25:24;;;;;;;7.03;2.75;;;1.50;27.40;;;;;;5108194;28;20455;-79
2024/01/07 12:27:52;;;;;;;5.78;2.70;;;1.40;28.80;;;;;;5108555;28;20396;-79
2024/01/07 12:30:19;;;;;;;8.60;3.70;;;1.50;31.80;;;;;;5107501;28;20769;-79
2024/01/07 12:32:45;;;;;;;6.50;2.60;;;1.60;40.40;;;;;;5108176;28;20400;-79
2024/01/07 12:35:10;;;;;;;5.68;3.00;;;1.80;35.00;;;;;;5105876;28;20429;-78
2024/01/07 12:37:37;;;;;;;7.80;3.15;;;1.80;28.10;;;;;;5108660;28;20396;-78
2024/01/07 12:40:04;;;;;;;5.65;3.08;;;1.80;30.90;;;;;;5104913;28;20430;-79
2024/01/07 12:42:29;;;;;;;7.38;3.75;;;2.00;30.10;;;;;;5107499;28;20408;-79
2024/01/07 12:44:55;;;;;;;5.55;2.70;;;2.20;36.50;;;;;;5092735;28;20432;-79
2024/01/07 12:47:20;;;;;;;5.38;2.78;;;2.50;27.60;;;;;;5105879;28;20415;-79
2024/01/07 12:49:46;;;;;;;7.20;3.30;;;2.40;19.20;;;;;;5101723;28;20406;-79
2024/01/07 12:52:12;;;;;;;8.05;2.85;;;2.20;15.50;;;;;;5099046;28;20454;-79
2024/01/07 12:54:38;;;;;;;5.63;2.85;;;2.10;18.60;;;;;;5099154;28;20402;-78